Time;durP1;ratioP1;P1;durP2;ratioP2;P2;SDS_P1;SDS_P2;PMS_P1;PMS_P2;Temp;Humidity;BMP_temperature;BMP_pressure;BME280_temperature;BME280_humidity;BME280_pressure;Samples;Min_cycle;Max_cycle;Signal;HPM_P1;HPM_P2
2023/01/06 00:01:09;;;;;;;0.40;0.40;;;4.70;99.90;;;;;;4396866;32;20148;-72
2023/01/06 00:03:35;;;;;;;0.50;0.50;;;4.70;99.90;;;;;;4398765;32;20201;-72
2023/01/06 00:06:02;;;;;;;3.55;0.80;;;4.70;99.90;;;;;;4395386;32;20097;-72
2023/01/06 00:08:28;;;;;;;0.52;0.52;;;4.60;99.90;;;;;;4397989;32;20447;-72
2023/01/06 00:10:54;;;;;;;0.43;0.43;;;4.70;99.90;;;;;;4389446;32;20081;-72
2023/01/06 00:13:20;;;;;;;1.80;1.52;;;4.60;99.90;;;;;;4383302;32;20081;-71
2023/01/06 00:15:45;;;;;;;0.60;0.60;;;4.60;99.90;;;;;;4392684;32;20118;-71
2023/01/06 00:18:11;;;;;;;0.70;0.70;;;4.60;99.90;;;;;;4397171;32;20082;-72
2023/01/06 00:20:36;;;;;;;0.55;0.55;;;4.60;99.90;;;;;;4395706;32;20074;-73
2023/01/06 00:23:03;;;;;;;0.50;0.50;;;4.70;99.90;;;;;;4389262;32;20426;-73
2023/01/06 00:25:28;;;;;;;0.30;0.30;;;4.70;99.90;;;;;;4386963;32;20077;-73
2023/01/06 00:27:54;;;;;;;0.60;0.60;;;4.80;99.90;;;;;;4393951;32;20942;-73
2023/01/06 00:30:20;;;;;;;1.65;0.62;;;4.70;99.90;;;;;;4394666;32;20128;-73
2023/01/06 00:32:45;;;;;;;0.50;0.50;;;4.60;99.90;;;;;;4396622;32;20588;-72
2023/01/06 00:35:11;;;;;;;0.50;0.50;;;4.40;99.90;;;;;;4395316;32;20432;-72
2023/01/06 00:37:36;;;;;;;0.45;0.45;;;4.40;99.90;;;;;;4400137;32;20105;-72
2023/01/06 00:40:02;;;;;;;0.40;0.40;;;4.40;99.90;;;;;;4393567;32;20129;-72
2023/01/06 00:42:27;;;;;;;0.80;0.80;;;4.40;99.90;;;;;;4383612;32;20281;-72
2023/01/06 00:44:53;;;;;;;0.30;0.30;;;4.50;99.90;;;;;;4386502;32;20070;-71
2023/01/06 00:47:19;;;;;;;2.58;1.08;;;4.40;99.90;;;;;;4398706;32;20102;-71
2023/01/06 00:49:44;;;;;;;1.85;1.00;;;4.40;99.90;;;;;;4398513;32;20101;-72
2023/01/06 00:52:10;;;;;;;0.80;0.70;;;4.40;99.90;;;;;;4393858;32;20093;-72
2023/01/06 00:54:36;;;;;;;0.60;0.60;;;4.40;99.90;;;;;;4385551;32;20372;-71
2023/01/06 00:57:02;;;;;;;0.30;0.30;;;4.50;99.90;;;;;;4390105;32;20513;-71
2023/01/06 00:59:27;;;;;;;0.40;0.40;;;4.50;99.90;;;;;;4398408;32;20098;-72
2023/01/06 01:01:55;;;;;;;0.32;0.32;;;4.50;99.90;;;;;;4402154;32;20321;-72
2023/01/06 01:04:21;;;;;;;0.47;0.47;;;4.60;99.90;;;;;;4401796;32;20108;-71
2023/01/06 01:06:47;;;;;;;0.37;0.37;;;4.60;99.90;;;;;;4398194;32;20102;-71
2023/01/06 01:09:17;;;;;;;0.30;0.30;;;4.60;99.90;;;;;;4399077;32;20090;-72
2023/01/06 01:12:14;;;;;;;0.40;0.40;;;4.60;99.90;;;;;;4385694;32;20533;-72
2023/01/06 01:14:28;;;;;;;0.40;0.40;;;4.60;99.90;;;;;;4375523;32;20169;-72
2023/01/06 01:16:54;;;;;;;0.30;0.30;;;4.70;99.90;;;;;;4402471;32;20097;-72
2023/01/06 01:19:20;;;;;;;0.65;0.65;;;4.70;99.90;;;;;;4398804;32;20089;-72
2023/01/06 01:21:46;;;;;;;0.35;0.35;;;4.80;99.90;;;;;;4399290;32;20541;-72
2023/01/06 01:24:12;;;;;;;0.52;0.52;;;4.80;99.90;;;;;;4386666;32;20205;-72
2023/01/06 01:26:38;;;;;;;0.40;0.40;;;4.70;99.90;;;;;;4390449;32;20078;-72
2023/01/06 01:29:04;;;;;;;1.17;1.10;;;4.70;99.90;;;;;;4400745;32;20216;-72
2023/01/06 01:31:30;;;;;;;0.52;0.52;;;4.80;99.90;;;;;;4400153;32;20082;-72
2023/01/06 01:33:55;;;;;;;0.32;0.32;;;4.80;99.90;;;;;;4399694;32;20196;-72
2023/01/06 01:36:21;;;;;;;0.40;0.40;;;4.80;99.90;;;;;;4396887;32;20187;-72
2023/01/06 01:38:46;;;;;;;0.50;0.50;;;4.80;99.90;;;;;;4399845;32;20112;-72
2023/01/06 01:41:16;;;;;;;0.40;0.40;;;4.80;99.90;;;;;;4388408;32;20070;-72
2023/01/06 01:43:44;;;;;;;0.40;0.40;;;4.80;99.90;;;;;;4383908;32;20109;-72
2023/01/06 01:46:11;;;;;;;1.23;1.12;;;4.70;99.90;;;;;;4384294;32;20085;-72
2023/01/06 01:48:38;;;;;;;0.47;0.47;;;4.80;99.90;;;;;;4399548;32;20061;-72
2023/01/06 01:51:10;;;;;;;0.32;0.32;;;4.80;99.90;;;;;;4401141;32;20236;-72
2023/01/06 01:53:41;;;;;;;0.62;0.62;;;4.80;99.90;;;;;;4385149;32;20166;-72
2023/01/06 01:56:09;;;;;;;0.40;0.40;;;4.80;99.90;;;;;;4388950;32;20077;-72
2023/01/06 01:58:41;;;;;;;0.40;0.40;;;4.80;99.90;;;;;;4397929;32;20086;-71
2023/01/06 02:01:09;;;;;;;0.47;0.47;;;4.90;99.90;;;;;;4399720;32;20089;-72
2023/01/06 02:03:36;;;;;;;0.37;0.37;;;4.90;99.90;;;;;;4399436;32;20082;-72
2023/01/06 02:06:04;;;;;;;0.55;0.55;;;5.00;99.90;;;;;;4398367;32;20529;-71
2023/01/06 02:08:36;;;;;;;0.52;0.52;;;5.00;99.90;;;;;;4397801;32;20073;-71
2023/01/06 02:11:03;;;;;;;0.40;0.40;;;5.00;99.90;;;;;;4386696;32;20093;-72
2023/01/06 02:13:30;;;;;;;0.50;0.50;;;5.10;99.90;;;;;;4383349;32;20101;-72
2023/01/06 02:16:22;;;;;;;0.35;0.35;;;5.10;99.90;;;;;;4394051;32;20467;-71
2023/01/06 02:19:27;;;;;;;0.32;0.32;;;5.10;99.90;;;;;;4388382;32;20152;-71
2023/01/06 02:22:23;;;;;;;2.60;1.05;;;5.10;99.90;;;;;;4378031;32;20590;-72
2023/01/06 02:25:25;;;;;;;0.40;0.40;;;5.10;99.90;;;;;;4375560;32;20674;-71
2023/01/06 02:28:08;;;;;;;0.40;0.40;;;5.20;99.90;;;;;;4387715;32;20088;-72
2023/01/06 02:31:00;;;;;;;0.68;0.68;;;5.20;99.90;;;;;;4396094;32;20082;-71
2023/01/06 02:33:32;;;;;;;0.30;0.30;;;5.20;99.90;;;;;;4387873;32;20074;-71
2023/01/06 02:36:08;;;;;;;0.43;0.43;;;5.40;99.90;;;;;;4397971;32;20077;-72
2023/01/06 02:38:53;;;;;;;0.30;0.30;;;5.50;99.90;;;;;;4399837;32;20118;-71
2023/01/06 02:41:32;;;;;;;0.40;0.40;;;5.50;99.90;;;;;;4374268;32;20169;-72
2023/01/06 02:44:24;;;;;;;0.30;0.30;;;5.40;99.90;;;;;;4384046;32;20366;-72
2023/01/06 02:47:14;;;;;;;0.35;0.35;;;5.40;99.90;;;;;;4385249;32;20136;-71
2023/01/06 02:49:46;;;;;;;0.40;0.40;;;5.40;99.90;;;;;;4387560;32;20081;-71
2023/01/06 02:52:30;;;;;;;0.40;0.40;;;5.50;99.90;;;;;;4393366;32;20607;-72
2023/01/06 02:55:06;;;;;;;0.40;0.40;;;5.50;99.90;;;;;;4386554;32;20077;-72
2023/01/06 02:57:38;;;;;;;0.40;0.40;;;5.50;99.90;;;;;;4393161;32;20106;-72
2023/01/06 03:00:10;;;;;;;0.30;0.30;;;5.60;99.90;;;;;;4391650;32;20074;-71
2023/01/06 03:02:40;;;;;;;0.30;0.30;;;5.70;99.90;;;;;;4387164;32;20086;-72
2023/01/06 03:05:08;;;;;;;0.30;0.30;;;5.60;99.90;;;;;;4388076;32;20438;-72
2023/01/06 03:07:37;;;;;;;1.48;0.80;;;5.50;99.90;;;;;;4387954;32;20082;-71
2023/01/06 03:10:03;;;;;;;0.30;0.30;;;5.40;99.90;;;;;;4385285;32;20097;-72
2023/01/06 03:12:52;;;;;;;0.40;0.40;;;5.50;99.90;;;;;;4372588;32;20070;-72
2023/01/06 03:15:18;;;;;;;0.75;0.73;;;5.50;99.90;;;;;;4366951;32;20094;-72
2023/01/06 03:17:44;;;;;;;1.62;1.10;;;5.60;99.90;;;;;;4387168;32;20061;-72
2023/01/06 03:20:11;;;;;;;0.30;0.30;;;5.50;99.90;;;;;;4387902;32;20623;-72
2023/01/06 03:22:38;;;;;;;0.30;0.30;;;5.50;99.90;;;;;;4381460;32;20132;-72
2023/01/06 03:25:06;;;;;;;0.30;0.30;;;5.50;99.90;;;;;;4377771;32;21883;-72
2023/01/06 03:27:31;;;;;;;0.40;0.40;;;5.50;99.90;;;;;;4382335;32;20093;-72
2023/01/06 03:29:57;;;;;;;0.47;0.47;;;5.50;99.90;;;;;;4387233;32;20102;-72
2023/01/06 03:32:39;;;;;;;0.47;0.47;;;5.60;99.90;;;;;;4387017;32;20062;-72
2023/01/06 03:35:08;;;;;;;0.93;0.93;;;5.60;99.90;;;;;;4389073;32;20596;-72
2023/01/06 03:37:58;;;;;;;0.40;0.40;;;5.60;99.90;;;;;;4372341;32;20549;-72
2023/01/06 03:40:30;;;;;;;9.73;1.27;;;5.60;99.90;;;;;;4381608;32;20082;-72
2023/01/06 03:43:14;;;;;;;0.40;0.40;;;5.60;99.90;;;;;;4374819;32;20074;-72
2023/01/06 03:45:55;;;;;;;0.40;0.40;;;5.70;99.90;;;;;;4381005;32;20094;-71
2023/01/06 03:48:47;;;;;;;1.35;0.77;;;5.60;99.90;;;;;;4386082;32;20125;-72
2023/01/06 03:51:35;;;;;;;0.37;0.37;;;5.60;99.90;;;;;;4375560;32;21163;-72
2023/01/06 03:54:27;;;;;;;0.30;0.30;;;5.70;99.90;;;;;;4361933;32;20102;-72
2023/01/06 03:57:04;;;;;;;0.40;0.40;;;5.70;99.90;;;;;;4367714;32;20498;-72
2023/01/06 03:59:34;;;;;;;0.30;0.30;;;5.60;99.90;;;;;;4387737;32;20090;-72
2023/01/06 04:02:00;;;;;;;0.30;0.30;;;5.60;99.90;;;;;;4390613;32;20066;-71
2023/01/06 04:04:26;;;;;;;1.00;0.47;;;5.50;99.90;;;;;;4390881;32;20632;-72
2023/01/06 04:06:51;;;;;;;0.40;0.40;;;5.50;99.90;;;;;;4391462;32;20189;-71
2023/01/06 04:09:17;;;;;;;0.40;0.40;;;5.50;99.90;;;;;;4392223;32;20074;-72
2023/01/06 04:12:42;;;;;;;0.55;0.50;;;5.50;99.90;;;;;;4378025;32;20190;-72
2023/01/06 04:14:28;;;;;;;1.95;0.95;;;5.40;99.90;;;;;;4363977;32;20077;-72
2023/01/06 04:16:53;;;;;;;0.40;0.40;;;5.50;99.90;;;;;;4392524;32;20554;-71
2023/01/06 04:19:19;;;;;;;0.30;0.30;;;5.50;99.90;;;;;;4393263;32;20561;-72
2023/01/06 04:21:44;;;;;;;0.50;0.50;;;5.50;99.90;;;;;;4389797;32;20070;-72
2023/01/06 04:24:09;;;;;;;0.85;0.82;;;5.40;99.90;;;;;;4379375;32;20102;-72
2023/01/06 04:26:35;;;;;;;0.30;0.30;;;5.50;99.90;;;;;;4382198;32;20071;-72
2023/01/06 04:29:01;;;;;;;0.40;0.40;;;5.50;99.90;;;;;;4394166;32;20081;-72
2023/01/06 04:31:27;;;;;;;0.30;0.30;;;5.50;99.90;;;;;;4392955;32;20077;-72
2023/01/06 04:33:52;;;;;;;0.40;0.40;;;5.60;99.90;;;;;;4392277;32;20379;-72
2023/01/06 04:36:19;;;;;;;0.22;0.22;;;5.70;99.90;;;;;;4392504;32;21282;-71
2023/01/06 04:38:45;;;;;;;0.30;0.30;;;5.70;99.90;;;;;;4395210;32;20086;-71
2023/01/06 04:41:10;;;;;;;2.85;1.30;;;5.60;99.90;;;;;;4381998;32;20345;-72
2023/01/06 04:43:36;;;;;;;0.40;0.40;;;5.60;99.90;;;;;;4381155;32;20078;-72
2023/01/06 04:46:01;;;;;;;0.30;0.30;;;5.60;99.90;;;;;;4390609;32;20111;-72
2023/01/06 04:48:26;;;;;;;0.37;0.37;;;5.60;99.90;;;;;;4395297;32;20098;-72
2023/01/06 04:51:09;;;;;;;0.40;0.40;;;5.70;99.90;;;;;;4394597;32;20448;-72
2023/01/06 04:53:38;;;;;;;15.60;0.77;;;5.70;99.90;;;;;;4382833;32;20074;-72
2023/01/06 04:56:05;;;;;;;0.40;0.40;;;5.70;99.90;;;;;;4382494;32;20573;-72
2023/01/06 04:58:31;;;;;;;0.50;0.50;;;5.80;99.90;;;;;;4393041;32;20090;-72
2023/01/06 05:01:01;;;;;;;0.43;0.43;;;5.80;99.90;;;;;;4399232;32;20917;-72
2023/01/06 05:03:27;;;;;;;0.60;0.60;;;5.70;99.90;;;;;;4400926;32;20085;-71
2023/01/06 05:05:52;;;;;;;0.50;0.50;;;5.70;99.90;;;;;;4401220;32;20419;-72
2023/01/06 05:08:17;;;;;;;0.30;0.30;;;5.80;99.90;;;;;;4399727;32;20110;-72
2023/01/06 05:10:43;;;;;;;0.30;0.30;;;5.70;99.90;;;;;;4392680;32;20081;-72
2023/01/06 05:13:08;;;;;;;0.35;0.35;;;5.70;99.90;;;;;;4387966;32;20105;-72
2023/01/06 05:15:34;;;;;;;0.30;0.30;;;5.70;99.90;;;;;;4394022;32;20086;-72
2023/01/06 05:17:59;;;;;;;0.50;0.50;;;5.60;99.90;;;;;;4398986;32;20395;-71
2023/01/06 05:20:25;;;;;;;0.70;0.55;;;5.60;99.90;;;;;;4399432;32;20077;-72
2023/01/06 05:22:52;;;;;;;0.40;0.40;;;5.60;99.90;;;;;;4365938;32;20128;-72
2023/01/06 05:25:17;;;;;;;1.77;1.25;;;5.50;99.90;;;;;;4353982;32;20332;-72
2023/01/06 05:27:43;;;;;;;0.60;0.60;;;5.60;99.90;;;;;;4362599;32;20789;-72
2023/01/06 05:30:08;;;;;;;1.62;1.52;;;5.60;99.90;;;;;;4361852;32;20093;-72
2023/01/06 05:32:34;;;;;;;1.25;0.60;;;5.60;99.90;;;;;;4361845;32;20523;-72
2023/01/06 05:34:59;;;;;;;0.45;0.45;;;5.50;99.90;;;;;;4360536;32;20077;-72
2023/01/06 05:37:25;;;;;;;0.30;0.30;;;5.50;99.90;;;;;;4381128;32;21291;-72
2023/01/06 05:39:50;;;;;;;0.50;0.50;;;5.50;99.90;;;;;;4398813;32;20173;-72
2023/01/06 05:42:16;;;;;;;0.50;0.50;;;5.50;99.90;;;;;;4385325;32;20543;-72
2023/01/06 05:44:41;;;;;;;0.50;0.50;;;5.50;99.90;;;;;;4390332;32;20120;-73
2023/01/06 05:47:07;;;;;;;0.70;0.70;;;5.50;99.90;;;;;;4398313;32;20090;-71
2023/01/06 05:49:32;;;;;;;0.30;0.30;;;5.60;99.90;;;;;;4398669;32;20074;-71
2023/01/06 05:51:58;;;;;;;0.40;0.40;;;5.60;99.90;;;;;;4387984;32;21028;-71
2023/01/06 05:54:23;;;;;;;0.50;0.50;;;5.70;99.90;;;;;;4352684;32;20178;-72
2023/01/06 05:56:49;;;;;;;0.30;0.30;;;5.70;99.90;;;;;;4364935;32;20685;-71
2023/01/06 05:59:14;;;;;;;0.50;0.50;;;5.70;99.90;;;;;;4395973;32;20175;-74
2023/01/06 06:01:40;;;;;;;0.30;0.30;;;5.70;99.90;;;;;;4386382;32;20065;-71
2023/01/06 06:04:05;;;;;;;0.35;0.35;;;5.60;99.90;;;;;;4367376;32;20403;-72
2023/01/06 06:06:31;;;;;;;0.37;0.37;;;5.60;99.90;;;;;;4365679;32;20138;-72
2023/01/06 06:08:57;;;;;;;0.40;0.40;;;5.70;99.90;;;;;;4355534;32;20144;-72
2023/01/06 06:11:23;;;;;;;5.47;2.67;;;5.80;99.90;;;;;;4344133;32;20101;-72
2023/01/06 06:13:51;;;;;;;0.68;0.68;;;5.90;99.90;;;;;;4335725;32;20348;-74
2023/01/06 06:16:19;;;;;;;0.30;0.30;;;5.80;99.90;;;;;;4350620;32;20085;-72
2023/01/06 06:18:49;;;;;;;0.40;0.40;;;5.80;99.90;;;;;;4310097;32;20093;-72
2023/01/06 06:21:17;;;;;;;5.70;1.02;;;5.80;99.90;;;;;;4314477;32;20354;-72
2023/01/06 06:23:43;;;;;;;0.45;0.45;;;5.70;99.90;;;;;;4286813;32;20236;-72
2023/01/06 06:26:10;;;;;;;0.30;0.30;;;5.70;99.90;;;;;;4285823;32;20066;-72
2023/01/06 06:28:36;;;;;;;0.73;0.73;;;5.70;99.90;;;;;;4317890;32;20316;-72
2023/01/06 06:31:05;;;;;;;0.30;0.30;;;5.70;99.90;;;;;;4276696;32;21000;-72
2023/01/06 06:33:31;;;;;;;14.77;1.15;;;5.70;99.90;;;;;;4310932;32;20108;-73
2023/01/06 06:35:57;;;;;;;0.85;0.85;;;5.70;99.90;;;;;;4308379;32;20277;-72
2023/01/06 06:38:23;;;;;;;1.37;0.47;;;5.70;99.90;;;;;;4320084;32;20275;-72
2023/01/06 06:40:51;;;;;;;0.30;0.30;;;5.70;99.90;;;;;;4311452;32;21080;-72
2023/01/06 06:43:17;;;;;;;0.50;0.50;;;5.80;99.90;;;;;;4325500;32;20146;-72
2023/01/06 06:45:46;;;;;;;0.90;0.60;;;5.80;99.90;;;;;;4340317;32;20795;-73
2023/01/06 06:48:12;;;;;;;0.40;0.40;;;5.80;99.90;;;;;;4340128;32;20134;-74
2023/01/06 06:50:37;;;;;;;0.50;0.50;;;5.70;99.90;;;;;;4343344;32;20272;-73
2023/01/06 06:53:02;;;;;;;3.35;0.57;;;5.70;99.90;;;;;;4344733;32;21177;-74
2023/01/06 06:55:28;;;;;;;0.30;0.30;;;5.70;99.90;;;;;;4351253;32;20103;-73
2023/01/06 06:57:54;;;;;;;0.45;0.45;;;5.70;99.90;;;;;;4327168;32;20292;-74
2023/01/06 07:00:19;;;;;;;0.35;0.35;;;5.70;99.90;;;;;;4326554;32;20125;-73
2023/01/06 07:02:48;;;;;;;1.75;0.82;;;5.70;99.90;;;;;;4330415;32;20306;-72
2023/01/06 07:05:15;;;;;;;0.70;0.50;;;5.80;99.90;;;;;;4319793;32;20459;-72
2023/01/06 07:07:41;;;;;;;1.20;1.08;;;5.70;99.90;;;;;;4340464;32;20659;-73
2023/01/06 07:10:11;;;;;;;7.25;1.00;;;5.70;99.90;;;;;;4358008;32;20129;-73
2023/01/06 07:12:36;;;;;;;6.63;1.13;;;5.70;99.90;;;;;;4362969;32;20273;-73
2023/01/06 07:15:02;;;;;;;0.30;0.30;;;5.70;99.90;;;;;;4369648;32;20208;-72
2023/01/06 07:17:27;;;;;;;0.52;0.52;;;5.80;99.90;;;;;;4360531;32;20105;-73
2023/01/06 07:19:53;;;;;;;0.35;0.35;;;5.80;99.90;;;;;;4355069;32;20746;-72
2023/01/06 07:22:19;;;;;;;0.88;0.77;;;5.80;99.90;;;;;;4357944;32;20090;-72
2023/01/06 07:24:45;;;;;;;2.00;1.55;;;5.80;99.90;;;;;;4353488;32;20509;-72
2023/01/06 07:27:11;;;;;;;0.50;0.50;;;5.80;99.90;;;;;;4358841;32;20524;-72
2023/01/06 07:29:36;;;;;;;3.03;0.93;;;5.90;99.90;;;;;;4356749;32;20339;-72
2023/01/06 07:32:01;;;;;;;2.72;1.37;;;5.90;99.90;;;;;;4344879;32;92647;-73
2023/01/06 07:34:27;;;;;;;1.87;0.70;;;6.00;99.90;;;;;;4336130;32;20105;-73
2023/01/06 07:36:52;;;;;;;0.60;0.60;;;6.00;99.90;;;;;;4354845;32;20404;-72
2023/01/06 07:39:18;;;;;;;1.10;1.05;;;6.00;99.90;;;;;;4361629;32;21178;-73
2023/01/06 07:41:43;;;;;;;0.37;0.37;;;6.00;99.90;;;;;;4359103;32;20241;-72
2023/01/06 07:44:09;;;;;;;3.12;0.85;;;6.00;99.90;;;;;;4360767;32;20713;-72
2023/01/06 07:46:34;;;;;;;0.60;0.60;;;6.00;99.90;;;;;;4360902;32;20125;-72
2023/01/06 07:49:00;;;;;;;0.57;0.57;;;6.10;99.90;;;;;;4349098;32;20098;-72
2023/01/06 07:51:25;;;;;;;0.50;0.50;;;6.10;99.90;;;;;;4355034;32;20176;-76
2023/01/06 07:53:51;;;;;;;0.50;0.50;;;6.10;99.90;;;;;;4358145;32;20688;-72
2023/01/06 07:56:16;;;;;;;0.37;0.37;;;6.20;99.90;;;;;;4362175;32;20248;-73
2023/01/06 07:58:42;;;;;;;0.40;0.40;;;6.20;99.90;;;;;;4350957;32;20086;-73
2023/01/06 08:01:07;;;;;;;1.67;0.65;;;6.30;99.90;;;;;;4342561;32;20102;-72
2023/01/06 08:03:33;;;;;;;0.88;0.82;;;6.30;99.90;;;;;;4328840;32;20600;-73
2023/01/06 08:05:58;;;;;;;3.53;1.02;;;6.30;99.90;;;;;;4339537;32;21002;-73
2023/01/06 08:08:24;;;;;;;0.45;0.45;;;6.30;99.90;;;;;;4361598;32;20204;-73
2023/01/06 08:10:49;;;;;;;1.37;0.85;;;6.30;99.90;;;;;;4361820;32;20778;-73
2023/01/06 08:13:15;;;;;;;0.35;0.35;;;6.30;99.90;;;;;;4359684;32;20158;-73
2023/01/06 08:15:40;;;;;;;0.70;0.70;;;6.40;99.90;;;;;;4350211;32;20851;-73
2023/01/06 08:18:07;;;;;;;0.68;0.68;;;6.40;99.90;;;;;;4357109;32;20141;-73
2023/01/06 08:20:33;;;;;;;10.75;0.55;;;6.40;99.90;;;;;;4340698;32;20598;-72
2023/01/06 08:22:59;;;;;;;2.80;1.17;;;6.40;99.90;;;;;;4352348;32;20310;-72
2023/01/06 08:25:24;;;;;;;0.85;0.82;;;6.40;99.90;;;;;;4359993;32;20105;-72
2023/01/06 08:27:50;;;;;;;0.40;0.40;;;6.40;99.90;;;;;;4357024;32;20495;-72
2023/01/06 08:30:20;;;;;;;4.25;1.40;;;6.40;99.90;;;;;;4353197;32;20420;-72
2023/01/06 08:32:46;;;;;;;0.85;0.62;;;6.40;99.90;;;;;;4319223;32;21789;-72
2023/01/06 08:35:12;;;;;;;0.32;0.32;;;6.40;99.90;;;;;;4340483;32;20122;-75
2023/01/06 08:37:37;;;;;;;0.55;0.55;;;6.50;99.90;;;;;;4363186;32;20248;-72
2023/01/06 08:40:03;;;;;;;0.70;0.70;;;6.50;99.90;;;;;;4369627;32;20359;-73
2023/01/06 08:42:29;;;;;;;0.37;0.37;;;6.60;99.90;;;;;;4374406;32;20462;-74
2023/01/06 08:44:54;;;;;;;0.55;0.55;;;6.60;99.90;;;;;;4373281;32;20525;-71
2023/01/06 08:47:20;;;;;;;5.10;1.02;;;6.60;99.90;;;;;;4360465;32;20541;-72
2023/01/06 08:49:45;;;;;;;0.75;0.47;;;6.60;99.90;;;;;;4337891;32;20982;-75
2023/01/06 08:52:11;;;;;;;0.52;0.52;;;6.60;99.90;;;;;;4342225;32;20241;-72
2023/01/06 08:54:36;;;;;;;0.70;0.70;;;6.60;99.90;;;;;;4340032;32;21214;-73
2023/01/06 08:57:02;;;;;;;1.00;0.95;;;6.60;99.90;;;;;;4349277;32;20110;-72
2023/01/06 08:59:27;;;;;;;0.40;0.40;;;6.60;99.90;;;;;;4338811;32;20234;-73
2023/01/06 09:01:53;;;;;;;0.62;0.62;;;6.60;99.90;;;;;;4330018;32;20155;-73
2023/01/06 09:04:23;;;;;;;0.35;0.35;;;6.60;99.90;;;;;;4326015;32;20098;-74
2023/01/06 09:06:48;;;;;;;0.95;0.95;;;6.70;99.90;;;;;;4336454;32;20195;-73
2023/01/06 09:09:14;;;;;;;2.10;1.10;;;6.70;99.90;;;;;;4339028;32;20082;-75
2023/01/06 09:11:41;;;;;;;0.40;0.40;;;6.80;99.90;;;;;;4344213;32;20682;-75
2023/01/06 09:14:14;;;;;;;0.55;0.55;;;6.80;99.90;;;;;;4348001;32;20126;-75
2023/01/06 09:16:39;;;;;;;1.02;0.88;;;6.80;99.90;;;;;;4342731;32;21717;-75
2023/01/06 09:19:05;;;;;;;2.90;1.80;;;6.90;99.90;;;;;;4336527;32;20661;-75
2023/01/06 09:21:30;;;;;;;0.82;0.80;;;6.80;99.90;;;;;;4341588;32;20113;-74
2023/01/06 09:23:56;;;;;;;0.70;0.70;;;6.90;99.90;;;;;;4341208;32;20980;-73
2023/01/06 09:26:21;;;;;;;2.65;1.40;;;7.00;99.90;;;;;;4349889;32;20153;-74
2023/01/06 09:28:47;;;;;;;1.45;0.77;;;6.90;99.90;;;;;;4339192;32;20539;-75
2023/01/06 09:31:13;;;;;;;0.40;0.40;;;7.00;99.90;;;;;;4335400;32;21140;-73
2023/01/06 09:33:38;;;;;;;1.17;1.08;;;7.00;99.90;;;;;;4326586;32;20492;-72
2023/01/06 09:36:04;;;;;;;1.00;0.90;;;7.10;99.90;;;;;;4336003;32;20725;-73
2023/01/06 09:38:30;;;;;;;0.90;0.90;;;7.10;99.90;;;;;;4350813;32;20121;-73
2023/01/06 09:41:25;;;;;;;0.52;0.52;;;7.20;99.90;;;;;;4334581;32;20550;-74
2023/01/06 09:43:56;;;;;;;0.45;0.45;;;7.20;99.90;;;;;;4324897;32;20725;-73
2023/01/06 09:46:27;;;;;;;2.20;0.90;;;7.40;99.90;;;;;;4340801;32;20106;-72
2023/01/06 09:49:06;;;;;;;3.08;1.67;;;7.30;99.90;;;;;;4329206;32;20237;-75
2023/01/06 09:51:34;;;;;;;0.40;0.40;;;7.40;99.90;;;;;;4343828;32;22047;-75
2023/01/06 09:54:11;;;;;;;0.40;0.40;;;7.40;99.90;;;;;;4341907;32;20190;-75
2023/01/06 09:56:39;;;;;;;1.23;0.98;;;7.40;99.90;;;;;;4344230;32;20611;-75
2023/01/06 09:59:16;;;;;;;0.52;0.52;;;7.50;99.90;;;;;;4343860;32;20094;-73
2023/01/06 10:01:47;;;;;;;1.45;0.85;;;7.40;99.90;;;;;;4353980;32;20089;-74
2023/01/06 10:04:15;;;;;;;;;;;7.40;99.90;;;;;;4347119;32;20989;-74
2023/01/06 10:07:06;;;;;;;1.87;1.15;;;7.50;99.90;;;;;;4355107;32;20102;-73
2023/01/06 10:09:57;;;;;;;0.70;0.70;;;7.60;99.90;;;;;;4348749;32;20386;-74
2023/01/06 10:12:46;;;;;;;1.90;0.88;;;7.60;99.90;;;;;;4347802;32;20066;-72
2023/01/06 10:15:38;;;;;;;7.78;2.22;;;7.70;99.90;;;;;;4343951;32;20111;-72
2023/01/06 10:18:20;;;;;;;0.40;0.40;;;7.70;99.90;;;;;;4345684;32;20122;-72
2023/01/06 10:21:05;;;;;;;0.73;0.73;;;7.80;99.90;;;;;;4330689;32;20129;-72
2023/01/06 10:23:58;;;;;;;12.43;1.35;;;7.80;99.90;;;;;;4325102;32;21286;-75
2023/01/06 10:26:29;;;;;;;0.95;0.95;;;7.90;99.90;;;;;;4344779;32;20208;-73
2023/01/06 10:29:01;;;;;;;0.60;0.60;;;7.90;99.90;;;;;;4347936;32;22118;-74
2023/01/06 10:31:33;;;;;;;0.55;0.55;;;8.00;99.90;;;;;;4338668;32;20455;-75
2023/01/06 10:34:00;;;;;;;0.95;0.90;;;8.10;99.90;;;;;;4335894;32;20335;-74
2023/01/06 10:36:34;;;;;;;1.75;0.90;;;8.10;99.90;;;;;;4359424;32;20182;-75
2023/01/06 10:39:05;;;;;;;0.90;0.70;;;8.20;99.90;;;;;;4362098;32;20130;-75
2023/01/06 10:43:04;;;;;;;0.50;0.50;;;8.30;99.90;;;;;;4364400;32;20925;-75
2023/01/06 10:44:48;;;;;;;0.40;0.40;;;8.40;99.90;;;;;;4328790;32;20818;-75
2023/01/06 10:47:23;;;;;;;0.52;0.40;;;8.40;99.90;;;;;;4353650;32;20441;-75
2023/01/06 10:49:48;;;;;;;0.50;0.50;;;8.40;99.90;;;;;;4349233;32;20828;-76
2023/01/06 10:52:14;;;;;;;0.60;0.50;;;8.50;99.90;;;;;;4356292;32;20422;-75
2023/01/06 10:54:41;;;;;;;1.52;0.73;;;8.50;99.90;;;;;;4351632;32;20249;-75
2023/01/06 10:57:19;;;;;;;0.98;0.77;;;8.60;99.90;;;;;;4347136;32;20093;-75
2023/01/06 11:00:21;;;;;;;0.40;0.40;;;8.60;99.90;;;;;;4344425;32;20798;-76
2023/01/06 11:02:51;;;;;;;1.15;0.75;;;8.70;99.90;;;;;;4338643;32;20261;-75
2023/01/06 11:05:22;;;;;;;0.52;0.52;;;8.80;99.90;;;;;;4347034;32;20348;-75
2023/01/06 11:07:51;;;;;;;3.30;0.50;;;8.90;99.90;;;;;;4367904;32;20498;-75
2023/01/06 11:10:26;;;;;;;7.28;1.25;;;8.90;99.90;;;;;;4355846;32;21322;-74
2023/01/06 11:12:52;;;;;;;0.88;0.80;;;8.90;99.90;;;;;;4353539;32;20089;-75
2023/01/06 11:15:21;;;;;;;0.60;0.60;;;8.90;99.90;;;;;;4353294;32;20078;-75
2023/01/06 11:17:47;;;;;;;0.52;0.52;;;8.90;99.90;;;;;;4348211;32;20105;-75
2023/01/06 11:20:16;;;;;;;0.70;0.70;;;9.00;99.90;;;;;;4350143;32;20582;-79
2023/01/06 11:22:42;;;;;;;0.45;0.45;;;9.00;99.90;;;;;;4366955;32;20180;-73
2023/01/06 11:25:31;;;;;;;0.45;0.45;;;9.00;99.90;;;;;;4369338;32;20912;-74
2023/01/06 11:28:18;;;;;;;0.40;0.40;;;9.00;99.90;;;;;;4375205;32;20102;-75
2023/01/06 11:30:47;;;;;;;0.43;0.43;;;9.00;99.90;;;;;;4355120;32;20269;-75
2023/01/06 11:33:16;;;;;;;0.73;0.65;;;9.00;99.90;;;;;;4361538;32;20244;-75
2023/01/06 11:35:42;;;;;;;0.50;0.50;;;9.00;99.90;;;;;;4369458;32;20140;-75
2023/01/06 11:38:13;;;;;;;0.40;0.40;;;9.00;99.90;;;;;;4376704;32;20267;-75
2023/01/06 11:40:41;;;;;;;0.85;0.70;;;9.00;99.90;;;;;;4368392;32;20094;-74
2023/01/06 11:43:13;;;;;;;0.40;0.40;;;9.00;99.90;;;;;;4370466;32;20164;-75
2023/01/06 11:45:44;;;;;;;0.45;0.45;;;9.00;99.90;;;;;;4372124;32;20094;-74
2023/01/06 11:48:19;;;;;;;0.68;0.60;;;9.10;99.90;;;;;;4360822;32;20367;-74
2023/01/06 11:50:55;;;;;;;1.60;0.65;;;9.10;99.90;;;;;;4361223;32;21126;-73
2023/01/06 11:53:23;;;;;;;1.30;0.77;;;9.20;99.90;;;;;;4360733;32;20284;-74
2023/01/06 11:56:06;;;;;;;0.62;0.50;;;9.10;99.90;;;;;;4343106;32;20126;-74
2023/01/06 11:58:34;;;;;;;1.23;0.95;;;9.10;99.90;;;;;;4334843;32;20413;-73
2023/01/06 12:01:07;;;;;;;0.47;0.47;;;9.20;99.90;;;;;;4348188;32;20236;-73
2023/01/06 12:03:40;;;;;;;0.68;0.65;;;9.20;99.90;;;;;;4345281;32;21629;-74
2023/01/06 12:06:26;;;;;;;1.37;0.93;;;9.30;99.90;;;;;;4358891;32;20659;-73
2023/01/06 12:09:20;;;;;;;0.52;0.50;;;9.20;99.90;;;;;;4349863;32;20101;-73
2023/01/06 12:11:49;;;;;;;0.43;0.43;;;9.30;99.90;;;;;;4362015;32;20113;-74
2023/01/06 12:14:21;;;;;;;0.88;0.60;;;9.40;99.90;;;;;;4359588;32;20785;-73
2023/01/06 12:16:49;;;;;;;0.40;0.40;;;9.40;99.90;;;;;;4356383;32;20171;-73
2023/01/06 12:19:21;;;;;;;1.90;0.80;;;9.40;99.90;;;;;;4356293;32;20366;-73
2023/01/06 12:21:46;;;;;;;0.68;0.68;;;9.40;99.90;;;;;;4347872;32;20293;-73
2023/01/06 12:24:17;;;;;;;0.73;0.73;;;9.40;99.90;;;;;;4356216;32;20095;-73
2023/01/06 12:26:44;;;;;;;;;;;9.40;99.90;;;;;;4356040;32;20267;-73
2023/01/06 12:29:17;;;;;;;0.80;0.77;;;9.50;99.90;;;;;;4351968;32;20894;-73
2023/01/06 12:31:56;;;;;;;1.80;0.50;;;9.60;99.90;;;;;;4348487;32;20833;-73
2023/01/06 12:34:28;;;;;;;0.50;0.50;;;9.60;99.90;;;;;;4338222;32;20086;-72
2023/01/06 12:37:02;;;;;;;0.70;0.70;;;9.60;99.90;;;;;;4364416;32;20432;-73
2023/01/06 12:39:35;;;;;;;0.57;0.57;;;9.60;99.90;;;;;;4351622;32;20724;-73
2023/01/06 12:42:20;;;;;;;0.40;0.40;;;9.60;99.90;;;;;;4340853;32;20180;-73
2023/01/06 12:44:52;;;;;;;1.65;0.95;;;9.70;99.90;;;;;;4329683;32;20252;-73
2023/01/06 12:47:25;;;;;;;0.47;0.47;;;9.70;99.90;;;;;;4339345;32;20812;-75
2023/01/06 12:50:19;;;;;;;0.73;0.62;;;9.70;99.90;;;;;;4339003;32;20082;-74
2023/01/06 12:53:00;;;;;;;0.30;0.30;;;9.80;99.90;;;;;;4348968;32;20214;-74
2023/01/06 12:55:36;;;;;;;;;;;9.80;99.90;;;;;;4360134;32;20148;-74
2023/01/06 12:58:11;;;;;;;1.08;0.70;;;9.90;99.90;;;;;;4347018;32;20041;-75
2023/01/06 13:01:00;;;;;;;0.45;0.45;;;9.90;99.90;;;;;;4339070;32;20519;-74
2023/01/06 13:03:47;;;;;;;2.37;0.50;;;9.90;99.90;;;;;;4342908;32;20277;-74
2023/01/06 13:06:44;;;;;;;0.40;0.40;;;10.00;99.90;;;;;;4340041;32;20884;-74
2023/01/06 13:09:42;;;;;;;0.50;0.50;;;10.00;99.90;;;;;;4342041;32;20101;-74
2023/01/06 13:12:36;;;;;;;0.30;0.30;;;10.00;99.90;;;;;;4331960;32;20114;-74
2023/01/06 13:15:20;;;;;;;0.52;0.50;;;10.00;99.90;;;;;;4331317;32;20180;-74